Time;durP1;ratioP1;P1;durP2;ratioP2;P2;SDS_P1;SDS_P2;PMS_P1;PMS_P2;Temp;Humidity;BMP_temperature;BMP_pressure;BME280_temperature;BME280_humidity;BME280_pressure;Samples;Min_cycle;Max_cycle;Signal;HPM_P1;HPM_P2
2023/03/17 00:01:50;;;;;;;8.57;4.67;;;3.60;92.50;;;;;;5008118;28;20195;-88
2023/03/17 00:04:17;;;;;;;8.10;5.23;;;3.50;92.40;;;;;;5010567;28;20426;-88
2023/03/17 00:06:46;;;;;;;8.57;4.83;;;3.50;92.70;;;;;;5004462;28;20262;-89
2023/03/17 00:09:14;;;;;;;6.50;4.57;;;3.50;92.50;;;;;;5008858;28;20195;-89
2023/03/17 00:11:41;;;;;;;6.97;4.87;;;3.50;92.60;;;;;;5009654;28;20609;-88
2023/03/17 00:14:08;;;;;;;7.67;5.00;;;3.50;92.60;;;;;;5008790;28;20211;-89
2023/03/17 00:16:39;;;;;;;7.23;4.90;;;3.40;92.70;;;;;;5014696;28;20213;-86
2023/03/17 00:19:07;;;;;;;5.60;4.37;;;3.40;92.80;;;;;;5014833;28;20205;-89
2023/03/17 00:21:34;;;;;;;5.93;4.53;;;3.40;92.70;;;;;;5008101;28;20222;-88
2023/03/17 00:24:01;;;;;;;7.70;4.60;;;3.40;92.70;;;;;;5019089;28;20223;-89
2023/03/17 00:26:29;;;;;;;7.47;4.83;;;3.30;93.00;;;;;;5021016;28;20196;-88
2023/03/17 00:28:56;;;;;;;5.40;4.40;;;3.40;93.00;;;;;;5011810;28;20196;-89
2023/03/17 00:31:26;;;;;;;7.83;4.77;;;3.40;93.00;;;;;;5008186;28;20206;-87
2023/03/17 00:33:55;;;;;;;7.63;4.50;;;3.30;93.00;;;;;;5013719;28;20578;-89
2023/03/17 00:36:24;;;;;;;5.30;4.50;;;3.30;93.20;;;;;;5015388;28;20200;-89
2023/03/17 00:38:52;;;;;;;6.80;4.93;;;3.30;93.10;;;;;;5013109;28;20213;-86
2023/03/17 00:41:19;;;;;;;6.57;4.77;;;3.30;93.00;;;;;;5021425;28;20203;-90
2023/03/17 00:43:45;;;;;;;5.80;4.00;;;3.30;93.00;;;;;;5022683;28;20235;-89
2023/03/17 00:46:15;;;;;;;6.33;4.47;;;3.30;92.90;;;;;;5022531;28;20211;-88
2023/03/17 00:48:42;;;;;;;5.43;4.30;;;3.30;92.90;;;;;;5008315;28;20230;-87
2023/03/17 00:51:11;;;;;;;9.93;4.40;;;3.20;93.10;;;;;;5014976;28;20240;-88
2023/03/17 00:53:38;;;;;;;6.53;4.70;;;3.20;93.50;;;;;;5011511;28;20214;-88
2023/03/17 00:56:13;;;;;;;6.47;4.40;;;3.00;93.50;;;;;;5009236;28;20203;-89
2023/03/17 00:58:40;;;;;;;8.47;5.00;;;3.00;93.90;;;;;;5012480;28;20249;-89
2023/03/17 01:01:07;;;;;;;4.90;4.40;;;3.00;93.90;;;;;;5013236;28;20200;-88
2023/03/17 01:03:34;;;;;;;6.43;4.30;;;3.00;94.00;;;;;;5016045;28;20219;-88
2023/03/17 01:06:03;;;;;;;6.13;4.27;;;3.10;93.70;;;;;;5013955;28;20218;-88
2023/03/17 01:08:32;;;;;;;5.73;4.73;;;3.10;94.00;;;;;;5008782;28;20208;-90
2023/03/17 01:10:59;;;;;;;7.20;4.13;;;3.10;93.80;;;;;;5013990;28;20237;-89
2023/03/17 01:13:27;;;;;;;5.30;4.50;;;3.00;93.80;;;;;;5016276;28;20253;-88
2023/03/17 01:15:55;;;;;;;7.23;4.30;;;3.00;93.80;;;;;;5012326;28;20207;-88
2023/03/17 01:18:22;;;;;;;6.57;4.13;;;3.00;93.70;;;;;;5016460;28;20203;-88
2023/03/17 01:20:50;;;;;;;5.47;4.20;;;3.00;93.70;;;;;;5009724;28;20207;-88
2023/03/17 01:23:17;;;;;;;6.37;4.40;;;3.00;93.90;;;;;;5013139;28;20223;-88
2023/03/17 01:25:46;;;;;;;6.13;4.30;;;3.00;94.00;;;;;;5018556;28;20660;-88
2023/03/17 01:28:16;;;;;;;6.30;4.63;;;3.00;93.90;;;;;;5013845;28;20207;-88
2023/03/17 01:30:44;;;;;;;6.40;4.40;;;2.80;94.30;;;;;;5013504;28;20230;-88
2023/03/17 01:33:13;;;;;;;6.90;4.70;;;2.80;94.60;;;;;;5008343;28;20211;-88
2023/03/17 01:35:42;;;;;;;6.23;4.33;;;2.80;94.60;;;;;;5016099;28;20253;-88
2023/03/17 01:38:10;;;;;;;6.50;4.93;;;2.70;94.60;;;;;;5013398;28;20203;-89
2023/03/17 01:40:42;;;;;;;9.43;4.40;;;2.70;94.60;;;;;;5014593;28;20299;-88
2023/03/17 01:43:21;;;;;;;7.57;4.50;;;2.80;94.60;;;;;;5013433;28;20254;-88
2023/03/17 01:46:24;;;;;;;9.40;4.67;;;2.70;94.60;;;;;;5019293;28;20229;-88
2023/03/17 01:48:58;;;;;;;4.77;4.10;;;2.70;94.60;;;;;;4961334;28;20240;-88
2023/03/17 01:51:31;;;;;;;6.70;4.27;;;2.60;94.60;;;;;;4940756;29;20285;-88
2023/03/17 01:54:01;;;;;;;7.97;4.50;;;2.70;94.60;;;;;;4995201;28;20203;-89
2023/03/17 01:56:29;;;;;;;7.20;4.63;;;2.60;94.80;;;;;;5022120;28;20192;-88
2023/03/17 01:59:01;;;;;;;6.53;4.13;;;2.60;94.60;;;;;;4997743;28;20230;-89
2023/03/17 02:01:32;;;;;;;5.47;4.30;;;2.60;94.60;;;;;;5013436;28;20200;-88
2023/03/17 02:04:00;;;;;;;7.33;4.70;;;2.60;94.60;;;;;;5013645;28;20698;-88
2023/03/17 02:06:28;;;;;;;6.87;4.33;;;2.60;94.90;;;;;;5015124;28;20222;-88
2023/03/17 02:08:55;;;;;;;6.00;4.30;;;2.60;95.00;;;;;;5009208;28;20199;-88
2023/03/17 02:11:22;;;;;;;6.00;4.67;;;2.60;94.80;;;;;;5010394;28;20200;-88
2023/03/17 02:13:50;;;;;;;5.83;4.30;;;2.60;94.60;;;;;;5013482;28;20211;-88
2023/03/17 02:16:18;;;;;;;6.83;4.37;;;2.60;94.60;;;;;;5006452;28;20203;-88
2023/03/17 02:18:45;;;;;;;6.37;4.30;;;2.50;94.50;;;;;;5006378;28;20218;-88
2023/03/17 02:21:39;;;;;;;5.33;4.17;;;2.50;94.50;;;;;;5015859;28;20199;-88
2023/03/17 02:24:12;;;;;;;6.57;4.87;;;2.40;94.60;;;;;;5006231;28;20225;-88
2023/03/17 02:26:39;;;;;;;5.90;4.50;;;2.20;95.40;;;;;;5009276;28;20211;-88
2023/03/17 02:29:06;;;;;;;7.67;5.47;;;2.20;95.50;;;;;;5012625;28;20214;-88
2023/03/17 02:31:34;;;;;;;8.40;4.73;;;2.10;95.90;;;;;;5007743;28;20230;-88
2023/03/17 02:34:01;;;;;;;6.63;4.47;;;2.10;96.10;;;;;;5017983;28;20203;-88
2023/03/17 02:36:28;;;;;;;5.73;4.70;;;2.10;96.00;;;;;;5016917;28;20208;-88
2023/03/17 02:38:56;;;;;;;5.87;4.67;;;2.20;96.00;;;;;;5016559;28;20211;-88
2023/03/17 02:41:23;;;;;;;7.30;4.67;;;2.20;96.00;;;;;;5017983;28;20207;-88
2023/03/17 02:43:50;;;;;;;7.57;4.77;;;2.30;96.00;;;;;;5016400;28;20222;-88
2023/03/17 02:46:17;;;;;;;5.90;4.67;;;2.20;95.80;;;;;;5016257;28;20670;-88
2023/03/17 02:48:46;;;;;;;6.73;4.87;;;2.20;95.70;;;;;;5018863;28;20199;-89
2023/03/17 02:51:13;;;;;;;6.73;4.83;;;2.20;95.90;;;;;;5019015;28;20204;-89
2023/03/17 02:53:40;;;;;;;5.77;4.60;;;2.20;96.20;;;;;;5014768;28;20208;-88
2023/03/17 02:56:09;;;;;;;6.00;4.97;;;2.10;96.30;;;;;;5014194;28;20218;-88
2023/03/17 02:58:36;;;;;;;7.63;4.83;;;2.20;96.20;;;;;;5016420;28;20215;-88
2023/03/17 03:01:03;;;;;;;7.43;5.53;;;2.10;96.10;;;;;;5012027;28;20203;-88
2023/03/17 03:03:30;;;;;;;11.83;5.33;;;2.10;96.30;;;;;;5014718;28;20215;-88
2023/03/17 03:05:58;;;;;;;6.43;5.30;;;2.00;96.50;;;;;;5019667;28;20203;-88
2023/03/17 03:08:26;;;;;;;7.10;4.93;;;2.00;96.80;;;;;;5016098;28;20214;-88
2023/03/17 03:10:53;;;;;;;6.33;5.03;;;2.10;96.70;;;;;;5015465;28;20204;-88
2023/03/17 03:13:22;;;;;;;5.57;4.50;;;2.20;96.70;;;;;;5013966;28;20266;-88
2023/03/17 03:15:50;;;;;;;5.67;4.90;;;2.30;96.40;;;;;;5013288;28;20243;-88
2023/03/17 03:18:17;;;;;;;5.80;4.80;;;2.30;96.10;;;;;;5006719;28;20199;-90
2023/03/17 03:20:45;;;;;;;8.17;5.07;;;2.30;96.10;;;;;;5009052;28;20206;-88
2023/03/17 03:23:12;;;;;;;9.03;4.93;;;2.40;96.20;;;;;;5012319;28;20224;-88
2023/03/17 03:25:40;;;;;;;6.83;4.63;;;2.40;96.00;;;;;;5010742;28;20614;-89
2023/03/17 03:28:09;;;;;;;6.37;5.43;;;2.40;96.00;;;;;;5013993;28;20205;-88
2023/03/17 03:30:38;;;;;;;6.10;4.53;;;2.40;96.20;;;;;;5015315;28;20227;-88
2023/03/17 03:33:06;;;;;;;6.40;4.80;;;2.40;96.20;;;;;;5011288;28;20199;-89
2023/03/17 03:35:34;;;;;;;8.07;4.67;;;2.50;96.10;;;;;;5013939;28;20202;-88
2023/03/17 03:38:01;;;;;;;5.87;4.87;;;2.40;95.70;;;;;;5005784;28;20214;-88
2023/03/17 03:40:28;;;;;;;6.83;4.83;;;2.40;95.70;;;;;;5006893;28;20231;-88
2023/03/17 03:42:55;;;;;;;5.80;5.00;;;2.40;96.00;;;;;;5007217;28;20210;-88
2023/03/17 03:45:22;;;;;;;7.40;4.70;;;2.40;96.10;;;;;;4993379;28;20223;-88
2023/03/17 03:47:51;;;;;;;8.47;5.10;;;2.40;96.10;;;;;;5013801;28;20203;-89
2023/03/17 03:50:18;;;;;;;7.43;4.57;;;2.50;96.10;;;;;;5006873;28;20214;-88
2023/03/17 03:52:45;;;;;;;6.93;4.80;;;2.50;96.00;;;;;;5009446;28;20215;-88
2023/03/17 03:55:12;;;;;;;5.43;4.70;;;2.40;96.00;;;;;;5005275;28;20208;-88
2023/03/17 03:57:39;;;;;;;7.93;5.03;;;2.40;96.20;;;;;;5016874;28;20214;-89
2023/03/17 04:00:08;;;;;;;8.97;4.60;;;2.40;96.20;;;;;;5013235;28;20199;-88
2023/03/17 04:02:35;;;;;;;9.73;4.80;;;2.40;96.30;;;;;;5012029;28;20234;-88
2023/03/17 04:05:04;;;;;;;7.97;4.70;;;2.40;96.40;;;;;;5017376;28;20692;-88
2023/03/17 04:07:31;;;;;;;5.70;4.00;;;2.50;96.10;;;;;;5021204;28;20222;-89
2023/03/17 04:09:58;;;;;;;5.53;4.23;;;2.60;95.70;;;;;;5013911;28;20212;-88
2023/03/17 04:12:25;;;;;;;6.20;4.30;;;2.70;95.50;;;;;;5011995;28;20199;-88
2023/03/17 04:14:52;;;;;;;8.93;5.03;;;2.70;95.30;;;;;;5013214;28;20214;-88
2023/03/17 04:17:19;;;;;;;8.37;5.00;;;2.70;95.10;;;;;;5024003;28;20222;-91
2023/03/17 04:19:46;;;;;;;6.13;4.60;;;2.80;95.30;;;;;;5034691;28;20205;-88
2023/03/17 04:22:15;;;;;;;5.43;4.20;;;2.80;95.30;;;;;;5021575;28;20215;-89
2023/03/17 04:24:42;;;;;;;6.20;4.40;;;2.80;94.60;;;;;;5012888;28;20322;-88
2023/03/17 04:27:09;;;;;;;6.63;4.60;;;2.70;94.60;;;;;;5018397;28;20214;-88
2023/03/17 04:29:36;;;;;;;6.20;4.50;;;2.70;94.60;;;;;;5012949;28;20306;-88
2023/03/17 04:32:03;;;;;;;4.97;4.03;;;2.80;94.90;;;;;;5013738;28;20199;-88
2023/03/17 04:34:30;;;;;;;7.70;4.27;;;2.90;94.60;;;;;;5009598;28;20286;-88
2023/03/17 04:36:57;;;;;;;5.90;3.90;;;2.90;94.60;;;;;;5012623;28;20227;-88
2023/03/17 04:39:26;;;;;;;4.87;4.20;;;2.90;95.10;;;;;;5013030;28;20207;-88
2023/03/17 04:41:53;;;;;;;6.33;4.40;;;2.80;94.60;;;;;;5015039;28;20200;-88
2023/03/17 04:44:19;;;;;;;7.57;4.23;;;2.80;94.60;;;;;;5023019;28;20226;-88
2023/03/17 04:46:46;;;;;;;6.33;4.37;;;2.70;94.60;;;;;;5027181;28;20199;-88
2023/03/17 04:49:13;;;;;;;4.93;3.97;;;2.70;94.60;;;;;;5031109;28;20199;-87
2023/03/17 04:51:40;;;;;;;6.23;4.13;;;2.60;94.90;;;;;;5025791;28;20199;-88
2023/03/17 04:54:08;;;;;;;6.80;4.43;;;2.60;94.90;;;;;;5018550;28;20207;-88
2023/03/17 04:56:36;;;;;;;6.40;3.97;;;2.60;94.80;;;;;;5015414;28;20225;-88
2023/03/17 04:59:03;;;;;;;5.07;4.17;;;2.60;94.60;;;;;;5008396;28;20216;-88
2023/03/17 05:01:30;;;;;;;7.07;4.50;;;2.60;94.60;;;;;;5016909;28;20624;-88
2023/03/17 05:03:57;;;;;;;4.97;3.90;;;2.60;94.60;;;;;;5011711;28;20279;-88
2023/03/17 05:06:24;;;;;;;7.03;4.20;;;2.50;94.50;;;;;;5012790;28;20202;-88
2023/03/17 05:08:51;;;;;;;5.17;4.30;;;2.50;94.60;;;;;;5015835;28;20577;-89
2023/03/17 05:11:19;;;;;;;5.20;4.23;;;2.50;94.80;;;;;;5021034;28;20195;-88
2023/03/17 05:13:47;;;;;;;5.60;4.20;;;2.50;94.50;;;;;;5022784;28;20203;-88
2023/03/17 05:16:14;;;;;;;5.60;4.30;;;2.50;94.80;;;;;;5018236;28;20210;-88
2023/03/17 05:18:42;;;;;;;8.67;4.43;;;2.60;94.70;;;;;;5018524;28;20214;-89
2023/03/17 05:21:10;;;;;;;4.90;3.90;;;2.50;94.50;;;;;;5020789;28;20215;-88
2023/03/17 05:23:37;;;;;;;5.90;3.93;;;2.50;94.60;;;;;;5010006;28;20227;-88
2023/03/17 05:26:05;;;;;;;5.83;4.20;;;2.50;94.50;;;;;;5016101;28;20222;-89
2023/03/17 05:28:32;;;;;;;5.13;4.00;;;2.50;94.50;;;;;;5020656;28;20211;-88
2023/03/17 05:31:01;;;;;;;6.10;4.27;;;2.50;94.90;;;;;;5012758;28;20246;-89
2023/03/17 05:33:28;;;;;;;4.60;4.10;;;2.50;94.90;;;;;;5008592;28;20537;-89
2023/03/17 05:35:55;;;;;;;5.70;4.27;;;2.50;94.70;;;;;;5011068;28;20223;-86
2023/03/17 05:38:21;;;;;;;4.90;3.93;;;2.50;94.90;;;;;;5004016;28;20207;-86
2023/03/17 05:40:51;;;;;;;6.30;4.40;;;2.60;95.10;;;;;;5006262;28;20675;-86
2023/03/17 05:43:18;;;;;;;9.07;4.50;;;2.50;95.40;;;;;;4995191;28;20204;-85
2023/03/17 05:45:46;;;;;;;6.70;4.17;;;2.60;95.10;;;;;;5005891;28;20230;-86
2023/03/17 05:48:14;;;;;;;8.47;4.40;;;2.80;94.60;;;;;;5008262;28;20622;-86
2023/03/17 05:50:41;;;;;;;5.27;3.90;;;2.90;94.60;;;;;;5010628;28;20208;-85
2023/03/17 05:53:09;;;;;;;5.83;4.10;;;3.00;94.70;;;;;;5008641;28;20232;-86
2023/03/17 05:55:36;;;;;;;7.57;3.93;;;3.10;94.30;;;;;;5013635;28;20338;-85
2023/03/17 05:58:05;;;;;;;6.50;4.07;;;3.10;94.60;;;;;;5018861;28;20226;-87
2023/03/17 06:00:32;;;;;;;5.63;4.20;;;3.20;94.00;;;;;;5003924;28;20313;-87
2023/03/17 06:03:00;;;;;;;10.73;4.73;;;3.20;93.50;;;;;;5009554;28;20207;-86
2023/03/17 06:05:29;;;;;;;7.67;4.30;;;3.30;93.70;;;;;;5010354;28;20223;-86
2023/03/17 06:07:56;;;;;;;5.00;3.83;;;3.50;93.30;;;;;;5015285;28;20258;-86
2023/03/17 06:10:23;;;;;;;6.63;3.97;;;3.60;93.00;;;;;;5011597;28;20580;-86
2023/03/17 06:12:50;;;;;;;7.70;4.20;;;3.60;93.20;;;;;;5003897;28;21838;-86
2023/03/17 06:15:18;;;;;;;5.23;3.93;;;3.70;92.90;;;;;;5002963;28;20218;-92
2023/03/17 06:17:44;;;;;;;8.70;4.77;;;3.80;92.80;;;;;;5006284;28;20669;-87
2023/03/17 06:20:13;;;;;;;6.03;4.10;;;3.90;92.90;;;;;;5000645;28;20196;-86
2023/03/17 06:22:41;;;;;;;6.60;3.93;;;3.90;92.60;;;;;;5009929;28;20223;-86
2023/03/17 06:25:10;;;;;;;7.77;3.93;;;3.90;92.40;;;;;;5002567;28;20334;-87
2023/03/17 06:27:38;;;;;;;6.10;4.03;;;4.00;92.20;;;;;;5007581;28;20250;-86
2023/03/17 06:30:07;;;;;;;7.13;4.00;;;4.00;92.20;;;;;;5009304;28;20218;-86
2023/03/17 06:32:34;;;;;;;6.83;3.93;;;4.00;91.70;;;;;;5011710;28;20219;-84
2023/03/17 06:35:01;;;;;;;8.10;3.87;;;4.00;91.50;;;;;;5008092;28;20212;-85
2023/03/17 06:37:28;;;;;;;6.53;3.90;;;4.10;91.10;;;;;;5007184;28;20203;-85
2023/03/17 06:39:57;;;;;;;6.83;3.87;;;4.20;90.60;;;;;;5012492;28;20228;-84
2023/03/17 06:42:24;;;;;;;5.57;4.03;;;4.30;90.30;;;;;;5006538;28;20647;-85
2023/03/17 06:44:52;;;;;;;6.57;4.23;;;4.30;90.00;;;;;;5013053;28;20610;-87
2023/03/17 06:47:19;;;;;;;8.37;4.50;;;4.40;90.20;;;;;;5010588;28;20196;-86
2023/03/17 06:49:49;;;;;;;6.83;4.10;;;4.30;90.30;;;;;;5019520;28;20655;-90
2023/03/17 06:52:16;;;;;;;8.10;4.10;;;4.40;90.10;;;;;;5016353;28;20253;-92
2023/03/17 06:54:43;;;;;;;5.00;3.50;;;4.50;90.40;;;;;;5017868;28;20207;-93
2023/03/17 06:59:52;;;;;;;7.53;4.40;;;4.90;88.00;;;;;;5019981;28;20238;-94
2023/03/17 07:02:19;;;;;;;6.30;4.03;;;5.40;84.70;;;;;;5013127;28;20215;-90
2023/03/17 07:04:46;;;;;;;7.63;4.07;;;5.70;80.50;;;;;;5004354;28;20215;-83
2023/03/17 07:07:13;;;;;;;8.10;3.67;;;5.80;80.50;;;;;;5003189;28;20287;-90
2023/03/17 07:09:40;;;;;;;6.30;3.97;;;6.10;76.90;;;;;;5005944;28;20659;-90
2023/03/17 07:12:09;;;;;;;5.97;3.50;;;6.30;71.10;;;;;;5003945;28;20210;-91
2023/03/17 07:17:22;;;;;;;6.03;3.03;;;6.20;71.00;;;;;;5008365;28;20210;-90
2023/03/17 07:19:49;;;;;;;6.05;3.20;;;6.20;72.40;;;;;;5007185;28;20277;-91
2023/03/17 07:22:16;;;;;;;7.55;3.45;;;6.30;71.20;;;;;;5009800;28;20218;-91
2023/03/17 07:24:45;;;;;;;8.23;3.83;;;6.40;71.20;;;;;;5015023;28;20191;-90
2023/03/17 07:27:13;;;;;;;5.82;3.88;;;6.30;71.10;;;;;;5004910;28;20249;-90
2023/03/17 07:29:41;;;;;;;7.93;3.33;;;6.20;71.00;;;;;;5006183;28;20206;-90
2023/03/17 07:32:09;;;;;;;5.47;3.45;;;6.30;71.10;;;;;;5007561;28;20204;-90
2023/03/17 07:34:47;;;;;;;5.53;3.40;;;6.30;67.20;;;;;;5003718;28;20199;-90
2023/03/17 07:37:34;;;;;;;6.50;3.42;;;6.20;71.10;;;;;;4996901;28;20202;-91
2023/03/17 07:43:07;;;;;;;8.50;2.92;;;6.70;64.50;;;;;;5002999;28;20706;-89
2023/03/17 07:45:36;;;;;;;6.72;3.13;;;6.90;61.10;;;;;;5009664;28;20222;-89
2023/03/17 07:48:03;;;;;;;6.82;3.10;;;7.00;61.20;;;;;;5006639;28;20273;-90
2023/03/17 07:53:15;;;;;;;5.47;2.80;;;7.50;54.70;;;;;;4960358;28;20653;-93
2023/03/17 08:05:13;;;;;;;9.65;3.10;;;8.50;43.70;;;;;;5005334;28;20594;-87
2023/03/17 08:07:40;;;;;;;6.57;3.10;;;8.60;40.70;;;;;;5011356;28;20206;-89
2023/03/17 08:25:37;;;;;;;5.28;2.85;;;9.90;31.10;;;;;;4941872;28;20358;-88
2023/03/17 08:28:05;;;;;;;4.25;2.83;;;9.90;31.60;;;;;;4962934;28;20211;-88
2023/03/17 09:06:46;;;;;;;4.93;2.45;;;13.00;20.90;;;;;;4916634;29;20226;-88
2023/03/17 09:09:13;;;;;;;5.40;2.58;;;13.50;19.50;;;;;;4932067;29;20213;-88
2023/03/17 09:14:45;;;;;;;4.70;2.20;;;13.30;19.20;;;;;;5015424;28;20544;-88
2023/03/17 09:17:13;;;;;;;3.33;2.08;;;13.60;20.00;;;;;;5006545;28;20207;-90
2023/03/17 09:19:42;;;;;;;2.78;1.90;;;14.20;17.40;;;;;;5012708;28;20287;-90
2023/03/17 09:24:53;;;;;;;4.22;2.10;;;15.30;15.70;;;;;;5010717;28;20210;-88
2023/03/17 09:27:20;;;;;;;4.15;2.05;;;15.90;13.90;;;;;;5008985;28;20223;-88
2023/03/17 09:29:47;;;;;;;4.22;2.60;;;16.70;13.40;;;;;;5010992;28;20211;-88
2023/03/17 09:32:16;;;;;;;3.30;2.55;;;17.00;13.10;;;;;;5014067;28;20912;-87
2023/03/17 09:40:46;;;;;;;3.17;2.13;;;17.90;11.40;;;;;;5014378;28;20214;-86
2023/03/17 09:43:41;;;;;;;3.90;2.35;;;17.70;10.80;;;;;;5002837;28;20207;-87
2023/03/17 09:46:28;;;;;;;5.75;2.53;;;17.60;10.70;;;;;;5009005;28;20222;-86
2023/03/17 09:49:02;;;;;;;3.00;2.08;;;17.90;10.40;;;;;;5002725;28;20208;-87
2023/03/17 09:59:52;;;;;;;3.53;2.67;;;17.90;9.60;;;;;;4996701;28;20204;-87
2023/03/17 10:02:39;;;;;;;3.22;1.80;;;17.80;11.10;;;;;;5011009;28;20199;-86
2023/03/17 10:05:18;;;;;;;3.95;1.98;;;18.20;9.80;;;;;;5014286;28;20200;-86
2023/03/17 10:07:49;;;;;;;2.97;2.03;;;18.20;9.80;;;;;;5007462;28;20685;-86
2023/03/17 10:16:14;;;;;;;4.63;1.90;;;18.30;9.90;;;;;;5008999;28;20207;-86
2023/03/17 10:18:45;;;;;;;3.35;1.80;;;18.30;9.90;;;;;;5008585;28;20227;-86
2023/03/17 10:21:15;;;;;;;1.88;1.58;;;18.20;9.80;;;;;;5010273;28;20599;-86
2023/03/17 10:23:43;;;;;;;2.92;2.20;;;18.40;9.90;;;;;;5017645;28;20247;-86
2023/03/17 10:26:29;;;;;;;3.53;1.67;;;18.20;9.80;;;;;;5010650;28;20251;-85
2023/03/17 10:28:58;;;;;;;3.88;1.88;;;18.40;9.90;;;;;;5006137;28;20204;-85
2023/03/17 10:31:31;;;;;;;4.28;1.60;;;18.20;9.80;;;;;;5007603;28;20286;-86
2023/03/17 10:34:22;;;;;;;2.67;1.60;;;18.30;9.90;;;;;;5012936;28;20199;-85
2023/03/17 10:36:53;;;;;;;3.15;2.08;;;18.20;9.90;;;;;;5011150;28;20207;-86
2023/03/17 10:39:22;;;;;;;2.05;1.60;;;18.30;11.80;;;;;;5007100;28;20239;-85
2023/03/17 10:47:40;;;;;;;4.88;2.25;;;18.30;10.80;;;;;;5122863;27;20601;-85
2023/03/17 10:50:20;;;;;;;8.65;2.28;;;18.10;11.70;;;;;;5087244;28;20844;-87
2023/03/17 10:52:51;;;;;;;6.68;2.10;;;17.70;12.00;;;;;;5087461;28;20212;-87
2023/03/17 10:55:22;;;;;;;7.40;2.22;;;17.40;11.90;;;;;;5089800;28;20201;-86
2023/03/17 10:57:53;;;;;;;5.95;2.00;;;17.00;12.80;;;;;;5090383;28;20277;-90
2023/03/17 11:00:22;;;;;;;3.20;2.00;;;17.00;13.70;;;;;;5100300;28;20246;-87
2023/03/17 11:02:55;;;;;;;3.03;2.00;;;16.90;12.90;;;;;;5088157;28;20188;-88
2023/03/17 11:05:24;;;;;;;2.25;1.70;;;17.20;13.20;;;;;;5086445;28;20587;-90
2023/03/17 11:07:56;;;;;;;6.03;1.90;;;17.50;12.80;;;;;;5092073;28;20196;-86
2023/03/17 11:10:26;;;;;;;4.63;1.70;;;17.80;12.30;;;;;;5088753;28;20197;-85
2023/03/17 11:12:59;;;;;;;3.13;1.85;;;17.90;11.40;;;;;;5086619;28;20210;-89
2023/03/17 11:15:32;;;;;;;3.85;1.70;;;17.80;12.40;;;;;;5088532;28;20216;-88
2023/03/17 11:18:02;;;;;;;5.00;1.95;;;17.90;11.50;;;;;;5084551;28;20280;-88
2023/03/17 11:20:40;;;;;;;7.65;2.00;;;18.10;11.20;;;;;;5088563;28;20676;-85
2023/03/17 11:23:16;;;;;;;3.60;1.90;;;18.10;12.70;;;;;;5079704;28;20248;-87
2023/03/17 11:25:46;;;;;;;2.58;1.80;;;18.00;11.70;;;;;;5082982;28;20273;-87
2023/03/17 11:28:19;;;;;;;2.20;1.80;;;17.80;12.10;;;;;;5086042;28;20215;-87
2023/03/17 11:30:57;;;;;;;2.60;1.98;;;17.90;11.80;;;;;;5083486;28;20199;-86
2023/03/17 11:33:35;;;;;;;3.03;1.73;;;18.10;11.60;;;;;;5085560;28;20306;-89
2023/03/17 11:36:14;;;;;;;1.95;1.80;;;18.00;11.80;;;;;;5094259;28;20201;-88
2023/03/17 11:48:07;;;;;;;4.68;2.30;;;17.50;13.60;;;;;;5092451;28;20228;-89
2023/03/17 12:03:12;;;;;;;3.78;2.25;;;17.40;15.30;;;;;;5073804;28;20205;-89
2023/03/17 12:09:21;;;;;;;3.80;2.30;;;17.40;13.40;;;;;;5059351;28;20205;-92
2023/03/17 12:14:35;;;;;;;2.00;1.73;;;17.60;14.10;;;;;;5052121;28;20263;-89
2023/03/17 12:17:09;;;;;;;3.47;1.83;;;17.50;13.00;;;;;;5076203;28;20189;-90
2023/03/17 13:10:29;;;;;;;7.80;3.15;;;17.50;18.70;;;;;;5019892;28;20202;-92
2023/03/17 13:31:42;;;;;;;7.40;3.78;;;17.00;21.00;;;;;;4930186;28;20744;-91
2023/03/17 13:34:15;;;;;;;4.00;3.33;;;16.90;21.20;;;;;;4948160;28;20201;-90
2023/03/17 14:31:24;;;;;;;7.93;3.60;;;16.60;23.00;;;;;;4955666;28;20191;-90
2023/03/17 14:43:07;;;;;;;3.58;3.25;;;16.40;23.50;;;;;;5006326;28;20203;-89
2023/03/17 15:42:34;;;;;;;8.73;3.42;;;15.90;26.10;;;;;;4987423;28;20244;-90
2023/03/17 15:45:02;;;;;;;5.03;3.58;;;15.90;26.10;;;;;;4955684;28;20213;-88
2023/03/17 16:04:41;;;;;;;5.15;3.30;;;15.50;28.30;;;;;;5012381;28;20716;-88
2023/03/17 16:22:02;;;;;;;8.95;3.60;;;15.00;27.90;;;;;;5019377;28;20218;-87
2023/03/17 16:32:37;;;;;;;4.60;2.90;;;14.70;27.60;;;;;;5008177;28;20292;-88
2023/03/17 17:09:47;;;;;;;16.23;12.88;;;12.90;43.90;;;;;;5000209;28;20574;-87
2023/03/17 17:15:21;;;;;;;14.13;11.10;;;12.60;49.10;;;;;;5021594;28;20664;-85
2023/03/17 17:24:41;;;;;;;15.65;10.23;;;12.30;54.20;;;;;;5060499;22;20288;-89
2023/03/17 17:27:27;;;;;;;7.25;3.30;;;12.20;54.50;;;;;;5031992;28;20237;-89
2023/03/17 17:29:54;;;;;;;6.28;3.50;;;12.10;54.70;;;;;;5019292;28;20563;-89
2023/03/17 17:32:22;;;;;;;13.18;6.05;;;12.10;54.60;;;;;;5028708;28;20278;-88
2023/03/17 17:34:51;;;;;;;15.90;12.27;;;12.00;55.90;;;;;;5025276;28;20206;-87
2023/03/17 17:37:18;;;;;;;7.00;3.42;;;12.00;55.80;;;;;;5009179;28;20198;-86
2023/03/17 17:39:45;;;;;;;10.70;7.40;;;12.00;55.50;;;;;;5030384;28;20206;-87
2023/03/17 17:42:12;;;;;;;12.43;9.77;;;12.00;56.30;;;;;;5034490;28;20210;-86
2023/03/17 17:44:41;;;;;;;5.82;4.00;;;12.00;57.60;;;;;;5007611;28;20202;-85
2023/03/17 17:47:10;;;;;;;6.35;3.45;;;12.00;58.00;;;;;;5032254;28;20221;-84
2023/03/17 17:49:46;;;;;;;7.38;3.75;;;12.00;56.80;;;;;;5017637;28;20241;-89
2023/03/17 17:52:13;;;;;;;5.88;3.80;;;12.00;56.90;;;;;;5018398;28;20201;-87
2023/03/17 17:54:41;;;;;;;9.65;3.80;;;12.00;56.40;;;;;;5011848;28;20213;-88
2023/03/17 17:57:10;;;;;;;9.43;4.32;;;12.10;56.90;;;;;;5027455;28;20218;-87
2023/03/17 17:59:38;;;;;;;10.02;6.50;;;12.10;56.60;;;;;;5023232;28;20206;-91
2023/03/17 18:04:50;;;;;;;11.57;8.38;;;12.10;59.40;;;;;;5008377;28;20561;-87
2023/03/17 18:07:17;;;;;;;12.45;9.43;;;12.10;58.30;;;;;;5033064;28;20219;-89
2023/03/17 18:09:44;;;;;;;76.97;57.72;;;12.00;58.60;;;;;;5030120;28;20597;-87
2023/03/17 18:12:11;;;;;;;23.70;17.50;;;12.10;66.30;;;;;;5034035;28;20199;-88
2023/03/17 18:14:38;;;;;;;19.88;15.25;;;12.10;60.60;;;;;;5015457;28;20214;-89
2023/03/17 18:17:09;;;;;;;37.33;27.08;;;12.00;61.10;;;;;;5012592;28;20206;-88
2023/03/17 18:19:35;;;;;;;18.17;13.43;;;11.90;65.10;;;;;;5032884;28;20207;-87
2023/03/17 18:22:03;;;;;;;13.82;11.00;;;11.80;63.00;;;;;;5014263;28;20223;-87
2023/03/17 18:24:30;;;;;;;11.00;7.38;;;11.70;63.30;;;;;;5026344;28;20194;-88
2023/03/17 18:26:57;;;;;;;13.60;9.82;;;11.60;64.30;;;;;;5037083;28;20233;-87
2023/03/17 18:29:24;;;;;;;7.95;4.32;;;11.50;67.30;;;;;;5010186;28;20703;-88
2023/03/17 18:31:53;;;;;;;9.82;6.72;;;11.40;65.10;;;;;;4979264;28;20215;-88
2023/03/17 18:34:25;;;;;;;8.07;4.60;;;11.40;66.30;;;;;;4991287;28;20203;-87
2023/03/17 18:36:55;;;;;;;6.32;3.92;;;11.30;64.30;;;;;;5016046;28;20205;-90
2023/03/17 18:39:22;;;;;;;17.60;13.90;;;11.20;63.40;;;;;;5018180;28;20681;-89
2023/03/17 18:41:50;;;;;;;27.40;17.58;;;11.20;66.00;;;;;;5023807;28;20195;-88
2023/03/17 18:44:20;;;;;;;11.57;6.82;;;11.20;67.80;;;;;;5025309;28;20681;-88
2023/03/17 18:46:47;;;;;;;17.45;13.50;;;11.10;65.00;;;;;;5011208;28;20242;-87
2023/03/17 18:49:14;;;;;;;9.80;5.10;;;11.20;71.40;;;;;;5029017;28;20276;-89
2023/03/17 18:51:44;;;;;;;43.50;32.20;;;11.00;67.60;;;;;;5029034;28;20199;-89
2023/03/17 18:54:12;;;;;;;25.23;18.88;;;11.00;75.90;;;;;;5024605;28;20203;-89
2023/03/17 18:56:46;;;;;;;41.65;28.92;;;11.00;74.10;;;;;;5008240;28;20202;-88
2023/03/17 18:59:14;;;;;;;28.95;22.23;;;11.10;74.40;;;;;;5025969;28;20203;-89
2023/03/17 19:01:41;;;;;;;12.18;8.02;;;11.10;75.50;;;;;;5019270;28;20194;-89
2023/03/17 19:21:34;;;;;;;21.08;14.75;;;10.90;81.80;;;;;;5012220;28;20217;-87
2023/03/17 19:32:38;;;;;;;35.17;23.67;;;10.40;85.50;;;;;;5014754;28;20199;-88
2023/03/17 19:35:06;;;;;;;16.02;9.35;;;10.50;85.50;;;;;;5035403;28;20534;-88
2023/03/17 19:37:36;;;;;;;9.27;6.03;;;10.30;84.00;;;;;;5019243;28;20730;-88
2023/03/17 19:40:04;;;;;;;22.50;18.38;;;10.00;83.80;;;;;;5024255;28;20751;-90
2023/03/17 19:42:36;;;;;;;55.70;36.35;;;9.90;85.90;;;;;;5012598;28;20279;-88
2023/03/17 19:45:03;;;;;;;19.00;11.80;;;9.80;87.50;;;;;;5011788;28;20207;-89
2023/03/17 19:47:30;;;;;;;10.02;6.95;;;9.80;88.30;;;;;;5021237;28;20230;-89
2023/03/17 19:49:57;;;;;;;31.35;22.17;;;9.60;86.90;;;;;;5012920;28;20198;-88
2023/03/17 19:52:24;;;;;;;94.45;72.45;;;9.50;87.80;;;;;;5031971;28;20269;-88
2023/03/17 19:54:51;;;;;;;126.78;93.25;;;9.50;90.60;;;;;;5015870;28;20194;-88
2023/03/17 19:57:19;;;;;;;12.80;9.02;;;9.80;91.30;;;;;;5030217;28;20206;-87
2023/03/17 19:59:48;;;;;;;21.63;12.35;;;9.90;87.80;;;;;;5038852;28;20195;-88
2023/03/17 20:02:16;;;;;;;30.80;21.25;;;9.70;86.80;;;;;;5033861;28;20214;-87
2023/03/17 20:04:44;;;;;;;13.32;6.50;;;9.50;88.40;;;;;;5034501;28;20222;-87
2023/03/17 20:07:11;;;;;;;11.90;7.18;;;9.30;89.60;;;;;;5007100;28;20198;-88
2023/03/17 20:09:38;;;;;;;26.50;15.52;;;9.20;90.00;;;;;;5034329;28;20209;-88
2023/03/17 20:12:05;;;;;;;27.58;19.88;;;9.10;90.50;;;;;;5032393;28;20624;-87
2023/03/17 20:14:33;;;;;;;29.85;22.13;;;9.20;91.60;;;;;;5030114;28;20569;-87
2023/03/17 20:17:01;;;;;;;14.52;8.27;;;9.30;90.70;;;;;;5030173;28;20207;-88